sensor_id;sensor_type;location;lat;lon;timestamp;P1;durP1;ratioP1;P2;durP2;ratioP2
50779;SDS011;36748;37.428;-121.972;2023-09-12T00:00:36;6.43;;;1.40;;
50779;SDS011;36748;37.428;-121.972;2023-09-12T00:03:03;6.05;;;0.95;;
50779;SDS011;36748;37.428;-121.972;2023-09-12T00:05:29;6.55;;;1.10;;
50779;SDS011;36748;37.428;-121.972;2023-09-12T00:07:55;3.72;;;1.02;;
50779;SDS011;36748;37.428;-121.972;2023-09-12T00:10:21;4.82;;;1.30;;
50779;SDS011;36748;37.428;-121.972;2023-09-12T00:12:47;7.45;;;1.55;;
50779;SDS011;36748;37.428;-121.972;2023-09-12T00:15:14;4.32;;;0.90;;
50779;SDS011;36748;37.428;-121.972;2023-09-12T00:17:40;6.82;;;1.40;;
50779;SDS011;36748;37.428;-121.972;2023-09-12T00:20:06;7.68;;;1.30;;
50779;SDS011;36748;37.428;-121.972;2023-09-12T00:22:33;4.13;;;0.95;;
50779;SDS011;36748;37.428;-121.972;2023-09-12T00:24:59;2.60;;;1.05;;
50779;SDS011;36748;37.428;-121.972;2023-09-12T00:27:25;3.10;;;0.90;;
50779;SDS011;36748;37.428;-121.972;2023-09-12T00:29:52;8.45;;;1.00;;
50779;SDS011;36748;37.428;-121.972;2023-09-12T00:32:18;6.13;;;1.30;;
50779;SDS011;36748;37.428;-121.972;2023-09-12T00:34:44;8.65;;;1.10;;
50779;SDS011;36748;37.428;-121.972;2023-09-12T00:37:10;6.93;;;1.50;;
50779;SDS011;36748;37.428;-121.972;2023-09-12T00:39:37;7.20;;;1.30;;
50779;SDS011;36748;37.428;-121.972;2023-09-12T00:42:03;9.65;;;1.35;;
50779;SDS011;36748;37.428;-121.972;2023-09-12T00:44:33;4.40;;;1.10;;
50779;SDS011;36748;37.428;-121.972;2023-09-12T00:46:59;6.63;;;1.23;;
50779;SDS011;36748;37.428;-121.972;2023-09-12T00:49:27;3.22;;;0.90;;
50779;SDS011;36748;37.428;-121.972;2023-09-12T00:51:53;4.72;;;1.17;;
50779;SDS011;36748;37.428;-121.972;2023-09-12T00:54:21;4.15;;;1.20;;
50779;SDS011;36748;37.428;-121.972;2023-09-12T00:56:47;5.05;;;1.30;;
50779;SDS011;36748;37.428;-121.972;2023-09-12T00:59:14;6.32;;;1.13;;
50779;SDS011;36748;37.428;-121.972;2023-09-12T01:01:41;6.00;;;1.05;;
50779;SDS011;36748;37.428;-121.972;2023-09-12T01:04:08;5.47;;;0.90;;
50779;SDS011;36748;37.428;-121.972;2023-09-12T01:06:35;8.23;;;1.70;;
50779;SDS011;36748;37.428;-121.972;2023-09-12T01:09:04;7.57;;;1.33;;
50779;SDS011;36748;37.428;-121.972;2023-09-12T01:11:30;7.15;;;0.90;;
50779;SDS011;36748;37.428;-121.972;2023-09-12T01:13:57;7.93;;;0.90;;
50779;SDS011;36748;37.428;-121.972;2023-09-12T01:16:23;4.93;;;1.02;;
50779;SDS011;36748;37.428;-121.972;2023-09-12T01:18:49;11.32;;;1.35;;
50779;SDS011;36748;37.428;-121.972;2023-09-12T01:24:00;7.70;;;1.20;;
50779;SDS011;36748;37.428;-121.972;2023-09-12T01:29:34;3.40;;;1.10;;
50779;SDS011;36748;37.428;-121.972;2023-09-12T01:32:01;4.07;;;1.00;;
50779;SDS011;36748;37.428;-121.972;2023-09-12T01:34:28;3.83;;;0.82;;
50779;SDS011;36748;37.428;-121.972;2023-09-12T01:36:54;4.57;;;0.98;;
50779;SDS011;36748;37.428;-121.972;2023-09-12T01:39:20;5.38;;;1.10;;
50779;SDS011;36748;37.428;-121.972;2023-09-12T01:41:46;2.45;;;0.70;;
50779;SDS011;36748;37.428;-121.972;2023-09-12T01:44:13;5.18;;;0.90;;
50779;SDS011;36748;37.428;-121.972;2023-09-12T01:46:40;11.02;;;1.33;;
50779;SDS011;36748;37.428;-121.972;2023-09-12T01:49:07;4.88;;;0.90;;
50779;SDS011;36748;37.428;-121.972;2023-09-12T01:51:36;6.05;;;1.13;;
50779;SDS011;36748;37.428;-121.972;2023-09-12T01:54:03;3.47;;;0.98;;
50779;SDS011;36748;37.428;-121.972;2023-09-12T01:56:29;5.20;;;0.90;;
50779;SDS011;36748;37.428;-121.972;2023-09-12T01:58:56;2.35;;;0.93;;
50779;SDS011;36748;37.428;-121.972;2023-09-12T02:01:23;2.15;;;0.60;;
50779;SDS011;36748;37.428;-121.972;2023-09-12T02:03:52;2.53;;;0.70;;
50779;SDS011;36748;37.428;-121.972;2023-09-12T02:06:18;6.20;;;0.80;;
50779;SDS011;36748;37.428;-121.972;2023-09-12T02:08:44;7.95;;;0.98;;
50779;SDS011;36748;37.428;-121.972;2023-09-12T02:11:10;2.80;;;0.70;;
50779;SDS011;36748;37.428;-121.972;2023-09-12T02:13:36;2.42;;;0.80;;
50779;SDS011;36748;37.428;-121.972;2023-09-12T02:16:03;4.18;;;0.60;;
50779;SDS011;36748;37.428;-121.972;2023-09-12T02:18:29;2.80;;;0.90;;
50779;SDS011;36748;37.428;-121.972;2023-09-12T02:20:55;4.22;;;0.77;;
50779;SDS011;36748;37.428;-121.972;2023-09-12T02:23:23;7.53;;;1.00;;
50779;SDS011;36748;37.428;-121.972;2023-09-12T02:25:49;15.93;;;1.55;;
50779;SDS011;36748;37.428;-121.972;2023-09-12T02:28:15;8.65;;;1.23;;
50779;SDS011;36748;37.428;-121.972;2023-09-12T02:30:42;2.97;;;0.98;;
50779;SDS011;36748;37.428;-121.972;2023-09-12T02:33:08;4.05;;;1.00;;
50779;SDS011;36748;37.428;-121.972;2023-09-12T02:35:34;6.88;;;1.15;;
50779;SDS011;36748;37.428;-121.972;2023-09-12T02:38:00;10.77;;;1.20;;
50779;SDS011;36748;37.428;-121.972;2023-09-12T02:40:26;4.50;;;1.20;;
50779;SDS011;36748;37.428;-121.972;2023-09-12T02:42:53;5.38;;;1.10;;
50779;SDS011;36748;37.428;-121.972;2023-09-12T02:45:19;6.55;;;1.30;;
50779;SDS011;36748;37.428;-121.972;2023-09-12T02:47:45;5.03;;;1.17;;
50779;SDS011;36748;37.428;-121.972;2023-09-12T02:50:11;2.47;;;1.05;;
50779;SDS011;36748;37.428;-121.972;2023-09-12T02:52:37;4.70;;;0.95;;
50779;SDS011;36748;37.428;-121.972;2023-09-12T02:55:04;3.80;;;1.20;;
50779;SDS011;36748;37.428;-121.972;2023-09-12T02:57:30;4.70;;;1.05;;
50779;SDS011;36748;37.428;-121.972;2023-09-12T02:59:57;3.00;;;1.00;;
50779;SDS011;36748;37.428;-121.972;2023-09-12T03:02:23;3.83;;;1.30;;
50779;SDS011;36748;37.428;-121.972;2023-09-12T03:04:49;2.05;;;0.93;;
50779;SDS011;36748;37.428;-121.972;2023-09-12T03:07:16;4.22;;;0.98;;
50779;SDS011;36748;37.428;-121.972;2023-09-12T03:09:42;3.42;;;1.08;;
50779;SDS011;36748;37.428;-121.972;2023-09-12T03:12:08;4.82;;;1.30;;
50779;SDS011;36748;37.428;-121.972;2023-09-12T03:14:34;6.18;;;1.42;;
50779;SDS011;36748;37.428;-121.972;2023-09-12T03:17:00;4.35;;;1.58;;
50779;SDS011;36748;37.428;-121.972;2023-09-12T03:19:29;3.40;;;1.27;;
50779;SDS011;36748;37.428;-121.972;2023-09-12T03:21:55;4.47;;;1.33;;
50779;SDS011;36748;37.428;-121.972;2023-09-12T03:24:21;3.83;;;1.30;;
50779;SDS011;36748;37.428;-121.972;2023-09-12T03:26:50;3.53;;;1.65;;
50779;SDS011;36748;37.428;-121.972;2023-09-12T03:29:16;5.47;;;1.13;;
50779;SDS011;36748;37.428;-121.972;2023-09-12T03:31:43;6.63;;;1.08;;
50779;SDS011;36748;37.428;-121.972;2023-09-12T03:34:09;6.93;;;1.50;;
50779;SDS011;36748;37.428;-121.972;2023-09-12T03:36:38;4.68;;;1.60;;
50779;SDS011;36748;37.428;-121.972;2023-09-12T03:39:04;3.72;;;0.95;;
50779;SDS011;36748;37.428;-121.972;2023-09-12T03:41:34;4.30;;;1.17;;
50779;SDS011;36748;37.428;-121.972;2023-09-12T03:44:00;4.35;;;1.42;;
50779;SDS011;36748;37.428;-121.972;2023-09-12T03:46:27;5.68;;;1.05;;
50779;SDS011;36748;37.428;-121.972;2023-09-12T03:48:53;6.13;;;1.63;;
50779;SDS011;36748;37.428;-121.972;2023-09-12T03:51:19;6.32;;;1.02;;
50779;SDS011;36748;37.428;-121.972;2023-09-12T03:53:46;4.35;;;1.35;;
50779;SDS011;36748;37.428;-121.972;2023-09-12T03:56:13;4.07;;;1.40;;
50779;SDS011;36748;37.428;-121.972;2023-09-12T03:58:40;3.45;;;1.25;;
50779;SDS011;36748;37.428;-121.972;2023-09-12T04:01:06;4.15;;;1.48;;
50779;SDS011;36748;37.428;-121.972;2023-09-12T04:03:32;4.80;;;1.40;;
50779;SDS011;36748;37.428;-121.972;2023-09-12T04:05:59;5.13;;;1.50;;
50779;SDS011;36748;37.428;-121.972;2023-09-12T04:08:25;7.93;;;1.67;;
50779;SDS011;36748;37.428;-121.972;2023-09-12T04:10:51;3.17;;;1.27;;
50779;SDS011;36748;37.428;-121.972;2023-09-12T04:13:17;5.15;;;1.27;;
50779;SDS011;36748;37.428;-121.972;2023-09-12T04:15:43;6.32;;;1.48;;
50779;SDS011;36748;37.428;-121.972;2023-09-12T04:18:09;4.13;;;1.13;;
50779;SDS011;36748;37.428;-121.972;2023-09-12T04:20:35;7.68;;;1.40;;
50779;SDS011;36748;37.428;-121.972;2023-09-12T04:23:02;10.00;;;1.45;;
50779;SDS011;36748;37.428;-121.972;2023-09-12T04:25:29;6.50;;;1.55;;
50779;SDS011;36748;37.428;-121.972;2023-09-12T04:27:56;7.70;;;1.70;;
50779;SDS011;36748;37.428;-121.972;2023-09-12T04:30:22;13.52;;;1.63;;
50779;SDS011;36748;37.428;-121.972;2023-09-12T04:32:48;7.60;;;1.65;;
50779;SDS011;36748;37.428;-121.972;2023-09-12T04:35:14;5.00;;;1.33;;
50779;SDS011;36748;37.428;-121.972;2023-09-12T04:37:41;11.98;;;1.63;;
50779;SDS011;36748;37.428;-121.972;2023-09-12T04:40:07;4.70;;;1.42;;
50779;SDS011;36748;37.428;-121.972;2023-09-12T04:42:34;12.02;;;1.50;;
50779;SDS011;36748;37.428;-121.972;2023-09-12T04:45:00;8.50;;;1.48;;
50779;SDS011;36748;37.428;-121.972;2023-09-12T04:47:27;4.40;;;1.30;;
50779;SDS011;36748;37.428;-121.972;2023-09-12T04:49:53;7.35;;;1.80;;
50779;SDS011;36748;37.428;-121.972;2023-09-12T04:52:19;6.38;;;1.23;;
50779;SDS011;36748;37.428;-121.972;2023-09-12T04:54:45;10.25;;;1.67;;
50779;SDS011;36748;37.428;-121.972;2023-09-12T04:57:11;4.43;;;1.48;;
50779;SDS011;36748;37.428;-121.972;2023-09-12T04:59:38;9.07;;;1.40;;
50779;SDS011;36748;37.428;-121.972;2023-09-12T05:02:04;9.85;;;1.80;;
50779;SDS011;36748;37.428;-121.972;2023-09-12T05:04:30;13.55;;;1.90;;
50779;SDS011;36748;37.428;-121.972;2023-09-12T05:06:57;7.32;;;1.50;;
50779;SDS011;36748;37.428;-121.972;2023-09-12T05:09:23;9.27;;;2.40;;
50779;SDS011;36748;37.428;-121.972;2023-09-12T05:11:49;11.20;;;2.80;;
50779;SDS011;36748;37.428;-121.972;2023-09-12T05:14:15;8.48;;;2.80;;
50779;SDS011;36748;37.428;-121.972;2023-09-12T05:16:42;9.00;;;2.80;;
50779;SDS011;36748;37.428;-121.972;2023-09-12T05:19:08;7.88;;;3.25;;
50779;SDS011;36748;37.428;-121.972;2023-09-12T05:21:34;8.40;;;2.65;;
50779;SDS011;36748;37.428;-121.972;2023-09-12T05:24:00;10.45;;;2.95;;
50779;SDS011;36748;37.428;-121.972;2023-09-12T05:26:26;9.32;;;3.67;;
50779;SDS011;36748;37.428;-121.972;2023-09-12T05:28:52;10.98;;;4.28;;
50779;SDS011;36748;37.428;-121.972;2023-09-12T05:31:19;11.23;;;5.28;;
50779;SDS011;36748;37.428;-121.972;2023-09-12T05:33:45;11.27;;;3.83;;
50779;SDS011;36748;37.428;-121.972;2023-09-12T05:36:11;12.38;;;2.63;;
50779;SDS011;36748;37.428;-121.972;2023-09-12T05:38:37;10.27;;;2.70;;
50779;SDS011;36748;37.428;-121.972;2023-09-12T05:41:04;5.68;;;2.45;;
50779;SDS011;36748;37.428;-121.972;2023-09-12T05:43:31;7.13;;;2.97;;
50779;SDS011;36748;37.428;-121.972;2023-09-12T05:45:57;8.00;;;2.70;;
50779;SDS011;36748;37.428;-121.972;2023-09-12T05:48:24;11.95;;;2.75;;
50779;SDS011;36748;37.428;-121.972;2023-09-12T05:50:50;13.75;;;2.72;;
50779;SDS011;36748;37.428;-121.972;2023-09-12T05:53:16;7.75;;;2.47;;
50779;SDS011;36748;37.428;-121.972;2023-09-12T05:55:42;7.93;;;2.28;;
50779;SDS011;36748;37.428;-121.972;2023-09-12T05:58:10;8.48;;;1.90;;
50779;SDS011;36748;37.428;-121.972;2023-09-12T06:00:36;5.60;;;1.92;;
50779;SDS011;36748;37.428;-121.972;2023-09-12T06:03:02;8.73;;;1.80;;
50779;SDS011;36748;37.428;-121.972;2023-09-12T06:05:29;4.63;;;1.65;;
50779;SDS011;36748;37.428;-121.972;2023-09-12T06:07:55;6.40;;;1.42;;
50779;SDS011;36748;37.428;-121.972;2023-09-12T06:10:21;8.13;;;1.80;;
50779;SDS011;36748;37.428;-121.972;2023-09-12T06:12:47;7.38;;;1.88;;
50779;SDS011;36748;37.428;-121.972;2023-09-12T06:15:14;5.90;;;1.70;;
50779;SDS011;36748;37.428;-121.972;2023-09-12T06:17:41;4.57;;;1.60;;
50779;SDS011;36748;37.428;-121.972;2023-09-12T06:20:07;5.78;;;1.50;;
50779;SDS011;36748;37.428;-121.972;2023-09-12T06:22:34;3.58;;;1.40;;
50779;SDS011;36748;37.428;-121.972;2023-09-12T06:25:01;6.38;;;1.40;;
50779;SDS011;36748;37.428;-121.972;2023-09-12T06:27:27;6.43;;;1.50;;
50779;SDS011;36748;37.428;-121.972;2023-09-12T06:29:53;4.72;;;1.40;;
50779;SDS011;36748;37.428;-121.972;2023-09-12T06:32:19;3.22;;;1.25;;
50779;SDS011;36748;37.428;-121.972;2023-09-12T06:34:45;7.82;;;1.30;;
50779;SDS011;36748;37.428;-121.972;2023-09-12T06:37:12;4.72;;;1.13;;
50779;SDS011;36748;37.428;-121.972;2023-09-12T06:39:39;8.57;;;1.42;;
50779;SDS011;36748;37.428;-121.972;2023-09-12T06:42:05;4.60;;;1.73;;
50779;SDS011;36748;37.428;-121.972;2023-09-12T06:44:32;5.40;;;1.17;;
50779;SDS011;36748;37.428;-121.972;2023-09-12T06:46:58;4.45;;;1.60;;
50779;SDS011;36748;37.428;-121.972;2023-09-12T06:49:24;7.88;;;1.70;;
50779;SDS011;36748;37.428;-121.972;2023-09-12T06:51:50;8.68;;;1.80;;
50779;SDS011;36748;37.428;-121.972;2023-09-12T06:54:16;4.57;;;1.23;;
50779;SDS011;36748;37.428;-121.972;2023-09-12T06:56:43;5.60;;;1.63;;
50779;SDS011;36748;37.428;-121.972;2023-09-12T06:59:09;6.32;;;1.42;;
50779;SDS011;36748;37.428;-121.972;2023-09-12T07:01:36;6.88;;;1.60;;
50779;SDS011;36748;37.428;-121.972;2023-09-12T07:04:02;7.80;;;1.52;;
50779;SDS011;36748;37.428;-121.972;2023-09-12T07:06:28;9.50;;;1.73;;
50779;SDS011;36748;37.428;-121.972;2023-09-12T07:08:55;7.00;;;1.60;;
50779;SDS011;36748;37.428;-121.972;2023-09-12T07:11:21;6.55;;;1.42;;
50779;SDS011;36748;37.428;-121.972;2023-09-12T07:13:49;4.28;;;1.27;;
50779;SDS011;36748;37.428;-121.972;2023-09-12T07:16:15;12.65;;;2.00;;
50779;SDS011;36748;37.428;-121.972;2023-09-12T07:18:41;10.35;;;1.60;;
50779;SDS011;36748;37.428;-121.972;2023-09-12T07:21:09;7.45;;;1.70;;
50779;SDS011;36748;37.428;-121.972;2023-09-12T07:23:37;4.80;;;1.45;;
50779;SDS011;36748;37.428;-121.972;2023-09-12T07:26:04;8.52;;;1.98;;
50779;SDS011;36748;37.428;-121.972;2023-09-12T07:28:30;4.95;;;1.30;;
50779;SDS011;36748;37.428;-121.972;2023-09-12T07:30:57;8.02;;;1.58;;
50779;SDS011;36748;37.428;-121.972;2023-09-12T07:33:23;6.40;;;1.15;;
50779;SDS011;36748;37.428;-121.972;2023-09-12T07:35:52;6.88;;;1.70;;
50779;SDS011;36748;37.428;-121.972;2023-09-12T07:38:19;9.35;;;1.58;;
50779;SDS011;36748;37.428;-121.972;2023-09-12T07:40:46;4.97;;;1.40;;
50779;SDS011;36748;37.428;-121.972;2023-09-12T07:43:13;5.18;;;2.00;;
50779;SDS011;36748;37.428;-121.972;2023-09-12T07:45:39;6.68;;;1.35;;
50779;SDS011;36748;37.428;-121.972;2023-09-12T07:48:06;4.30;;;1.50;;
50779;SDS011;36748;37.428;-121.972;2023-09-12T07:50:32;8.20;;;1.70;;
50779;SDS011;36748;37.428;-121.972;2023-09-12T07:52:59;5.43;;;1.58;;
50779;SDS011;36748;37.428;-121.972;2023-09-12T07:55:25;6.88;;;1.67;;
50779;SDS011;36748;37.428;-121.972;2023-09-12T07:57:55;7.82;;;1.65;;
50779;SDS011;36748;37.428;-121.972;2023-09-12T08:00:21;5.40;;;1.67;;
50779;SDS011;36748;37.428;-121.972;2023-09-12T08:02:48;4.07;;;1.40;;
50779;SDS011;36748;37.428;-121.972;2023-09-12T08:05:15;4.40;;;1.40;;
50779;SDS011;36748;37.428;-121.972;2023-09-12T08:07:41;3.90;;;1.50;;
50779;SDS011;36748;37.428;-121.972;2023-09-12T08:10:08;7.25;;;1.63;;
50779;SDS011;36748;37.428;-121.972;2023-09-12T08:12:34;5.32;;;1.60;;
50779;SDS011;36748;37.428;-121.972;2023-09-12T08:15:03;8.45;;;2.33;;
50779;SDS011;36748;37.428;-121.972;2023-09-12T08:17:30;11.23;;;2.08;;
50779;SDS011;36748;37.428;-121.972;2023-09-12T08:19:57;20.33;;;1.95;;
50779;SDS011;36748;37.428;-121.972;2023-09-12T08:22:23;24.08;;;2.55;;
50779;SDS011;36748;37.428;-121.972;2023-09-12T08:24:49;10.93;;;2.15;;
50779;SDS011;36748;37.428;-121.972;2023-09-12T08:27:16;10.68;;;2.80;;
50779;SDS011;36748;37.428;-121.972;2023-09-12T08:29:42;15.02;;;2.70;;
50779;SDS011;36748;37.428;-121.972;2023-09-12T08:32:09;6.82;;;1.63;;
50779;SDS011;36748;37.428;-121.972;2023-09-12T08:34:36;12.05;;;2.00;;
50779;SDS011;36748;37.428;-121.972;2023-09-12T08:37:02;11.10;;;2.30;;
50779;SDS011;36748;37.428;-121.972;2023-09-12T08:39:41;5.85;;;1.58;;
50779;SDS011;36748;37.428;-121.972;2023-09-12T08:42:11;12.40;;;1.90;;
50779;SDS011;36748;37.428;-121.972;2023-09-12T08:44:39;10.80;;;2.33;;
50779;SDS011;36748;37.428;-121.972;2023-09-12T08:47:07;4.57;;;1.80;;
50779;SDS011;36748;37.428;-121.972;2023-09-12T08:49:35;9.75;;;1.83;;
50779;SDS011;36748;37.428;-121.972;2023-09-12T08:52:03;9.60;;;1.88;;
50779;SDS011;36748;37.428;-121.972;2023-09-12T08:54:31;8.27;;;2.10;;
50779;SDS011;36748;37.428;-121.972;2023-09-12T08:56:57;6.32;;;2.05;;
50779;SDS011;36748;37.428;-121.972;2023-09-12T08:59:24;9.48;;;1.88;;
50779;SDS011;36748;37.428;-121.972;2023-09-12T09:01:50;5.78;;;1.98;;
50779;SDS011;36748;37.428;-121.972;2023-09-12T09:04:18;7.50;;;1.67;;
50779;SDS011;36748;37.428;-121.972;2023-09-12T09:06:45;6.88;;;1.83;;
50779;SDS011;36748;37.428;-121.972;2023-09-12T09:09:11;6.82;;;1.75;;
50779;SDS011;36748;37.428;-121.972;2023-09-12T09:11:38;8.30;;;2.15;;
50779;SDS011;36748;37.428;-121.972;2023-09-12T09:14:04;8.45;;;2.47;;
50779;SDS011;36748;37.428;-121.972;2023-09-12T09:16:30;7.88;;;1.77;;
50779;SDS011;36748;37.428;-121.972;2023-09-12T09:21:35;6.50;;;1.77;;
50779;SDS011;36748;37.428;-121.972;2023-09-12T09:24:03;5.15;;;1.70;;
50779;SDS011;36748;37.428;-121.972;2023-09-12T09:29:10;6.30;;;2.08;;
50779;SDS011;36748;37.428;-121.972;2023-09-12T09:31:41;5.63;;;1.77;;
50779;SDS011;36748;37.428;-121.972;2023-09-12T09:34:12;7.35;;;2.10;;
50779;SDS011;36748;37.428;-121.972;2023-09-12T09:36:49;5.45;;;2.08;;
50779;SDS011;36748;37.428;-121.972;2023-09-12T09:39:17;5.45;;;1.92;;
50779;SDS011;36748;37.428;-121.972;2023-09-12T09:41:48;4.18;;;1.90;;
50779;SDS011;36748;37.428;-121.972;2023-09-12T09:44:14;6.15;;;2.15;;
50779;SDS011;36748;37.428;-121.972;2023-09-12T09:46:44;5.80;;;1.70;;
50779;SDS011;36748;37.428;-121.972;2023-09-12T09:49:14;4.10;;;1.70;;
50779;SDS011;36748;37.428;-121.972;2023-09-12T09:51:41;7.45;;;2.00;;
50779;SDS011;36748;37.428;-121.972;2023-09-12T09:54:14;5.65;;;1.70;;
50779;SDS011;36748;37.428;-121.972;2023-09-12T09:56:47;6.55;;;1.50;;
50779;SDS011;36748;37.428;-121.972;2023-09-12T09:59:23;8.15;;;2.05;;
50779;SDS011;36748;37.428;-121.972;2023-09-12T10:01:51;4.85;;;1.70;;
50779;SDS011;36748;37.428;-121.972;2023-09-12T10:04:21;5.63;;;1.85;;
50779;SDS011;36748;37.428;-121.972;2023-09-12T10:06:48;6.53;;;1.65;;
50779;SDS011;36748;37.428;-121.972;2023-09-12T10:09:15;7.45;;;1.80;;
50779;SDS011;36748;37.428;-121.972;2023-09-12T10:11:43;3.90;;;1.40;;
50779;SDS011;36748;37.428;-121.972;2023-09-12T10:14:10;5.68;;;1.85;;
50779;SDS011;36748;37.428;-121.972;2023-09-12T10:16:50;6.03;;;1.63;;
50779;SDS011;36748;37.428;-121.972;2023-09-12T10:19:32;7.75;;;2.10;;
50779;SDS011;36748;37.428;-121.972;2023-09-12T10:22:34;5.22;;;1.80;;
50779;SDS011;36748;37.428;-121.972;2023-09-12T10:25:04;5.82;;;1.80;;
50779;SDS011;36748;37.428;-121.972;2023-09-12T10:27:30;3.75;;;1.70;;
50779;SDS011;36748;37.428;-121.972;2023-09-12T10:29:58;4.63;;;1.80;;
50779;SDS011;36748;37.428;-121.972;2023-09-12T10:32:30;6.00;;;1.98;;
50779;SDS011;36748;37.428;-121.972;2023-09-12T10:34:58;6.13;;;1.63;;
50779;SDS011;36748;37.428;-121.972;2023-09-12T10:37:25;4.15;;;1.42;;
50779;SDS011;36748;37.428;-121.972;2023-09-12T10:39:55;5.22;;;1.77;;
50779;SDS011;36748;37.428;-121.972;2023-09-12T10:42:21;4.90;;;1.58;;
50779;SDS011;36748;37.428;-121.972;2023-09-12T10:44:49;4.32;;;1.58;;
50779;SDS011;36748;37.428;-121.972;2023-09-12T10:47:16;4.45;;;1.48;;
50779;SDS011;36748;37.428;-121.972;2023-09-12T10:49:43;4.55;;;1.73;;
50779;SDS011;36748;37.428;-121.972;2023-09-12T10:52:10;4.43;;;1.80;;
50779;SDS011;36748;37.428;-121.972;2023-09-12T10:57:09;6.13;;;1.80;;
50779;SDS011;36748;37.428;-121.972;2023-09-12T11:02:32;4.75;;;1.55;;
50779;SDS011;36748;37.428;-121.972;2023-09-12T11:05:00;6.47;;;1.70;;
50779;SDS011;36748;37.428;-121.972;2023-09-12T11:07:33;5.05;;;1.92;;
50779;SDS011;36748;37.428;-121.972;2023-09-12T11:12:45;4.43;;;1.70;;
50779;SDS011;36748;37.428;-121.972;2023-09-12T11:15:15;4.43;;;1.67;;
50779;SDS011;36748;37.428;-121.972;2023-09-12T11:17:46;4.03;;;1.52;;
50779;SDS011;36748;37.428;-121.972;2023-09-12T11:20:14;3.60;;;1.63;;
50779;SDS011;36748;37.428;-121.972;2023-09-12T11:22:47;6.47;;;1.95;;
50779;SDS011;36748;37.428;-121.972;2023-09-12T11:30:18;7.25;;;1.85;;
50779;SDS011;36748;37.428;-121.972;2023-09-12T11:32:52;3.70;;;1.88;;
50779;SDS011;36748;37.428;-121.972;2023-09-12T11:35:26;4.20;;;1.75;;
50779;SDS011;36748;37.428;-121.972;2023-09-12T11:37:54;6.18;;;1.70;;
50779;SDS011;36748;37.428;-121.972;2023-09-12T11:41:03;4.25;;;1.55;;
50779;SDS011;36748;37.428;-121.972;2023-09-12T11:43:24;4.20;;;1.55;;
50779;SDS011;36748;37.428;-121.972;2023-09-12T11:45:52;5.50;;;1.70;;
50779;SDS011;36748;37.428;-121.972;2023-09-12T11:48:20;4.55;;;1.80;;
50779;SDS011;36748;37.428;-121.972;2023-09-12T11:50:56;7.00;;;2.10;;
50779;SDS011;36748;37.428;-121.972;2023-09-12T11:53:26;4.72;;;1.73;;
50779;SDS011;36748;37.428;-121.972;2023-09-12T11:55:56;7.53;;;1.60;;
50779;SDS011;36748;37.428;-121.972;2023-09-12T11:58:24;5.22;;;1.70;;
50779;SDS011;36748;37.428;-121.972;2023-09-12T12:00:53;7.45;;;1.90;;
50779;SDS011;36748;37.428;-121.972;2023-09-12T12:03:21;7.55;;;1.98;;
50779;SDS011;36748;37.428;-121.972;2023-09-12T12:05:50;7.80;;;1.88;;
50779;SDS011;36748;37.428;-121.972;2023-09-12T12:08:18;4.82;;;1.70;;
50779;SDS011;36748;37.428;-121.972;2023-09-12T12:10:49;4.85;;;1.90;;
50779;SDS011;36748;37.428;-121.972;2023-09-12T12:13:18;4.13;;;1.50;;
50779;SDS011;36748;37.428;-121.972;2023-09-12T12:15:45;4.72;;;1.65;;
50779;SDS011;36748;37.428;-121.972;2023-09-12T12:18:11;4.55;;;1.60;;
50779;SDS011;36748;37.428;-121.972;2023-09-12T12:20:38;3.92;;;1.55;;
50779;SDS011;36748;37.428;-121.972;2023-09-12T12:23:04;4.57;;;1.63;;
50779;SDS011;36748;37.428;-121.972;2023-09-12T12:25:34;5.15;;;1.83;;
50779;SDS011;36748;37.428;-121.972;2023-09-12T12:28:01;3.85;;;1.50;;
50779;SDS011;36748;37.428;-121.972;2023-09-12T12:30:32;5.57;;;1.85;;
50779;SDS011;36748;37.428;-121.972;2023-09-12T12:33:00;3.40;;;1.58;;
50779;SDS011;36748;37.428;-121.972;2023-09-12T12:35:28;7.68;;;1.88;;
50779;SDS011;36748;37.428;-121.972;2023-09-12T12:37:55;7.20;;;2.22;;
50779;SDS011;36748;37.428;-121.972;2023-09-12T12:40:24;4.32;;;1.88;;
50779;SDS011;36748;37.428;-121.972;2023-09-12T12:42:50;4.85;;;1.63;;
50779;SDS011;36748;37.428;-121.972;2023-09-12T12:45:17;3.72;;;1.40;;
50779;SDS011;36748;37.428;-121.972;2023-09-12T12:47:45;4.90;;;1.50;;
50779;SDS011;36748;37.428;-121.972;2023-09-12T12:50:12;4.95;;;1.83;;
50779;SDS011;36748;37.428;-121.972;2023-09-12T12:52:39;4.60;;;1.80;;
50779;SDS011;36748;37.428;-121.972;2023-09-12T12:55:06;7.93;;;1.80;;
50779;SDS011;36748;37.428;-121.972;2023-09-12T12:57:40;6.78;;;2.05;;
50779;SDS011;36748;37.428;-121.972;2023-09-12T13:00:11;6.88;;;1.65;;
50779;SDS011;36748;37.428;-121.972;2023-09-12T13:02:42;5.45;;;2.15;;
50779;SDS011;36748;37.428;-121.972;2023-09-12T13:08:07;2.58;;;1.20;;
50779;SDS011;36748;37.428;-121.972;2023-09-12T13:10:33;4.20;;;1.80;;
50779;SDS011;36748;37.428;-121.972;2023-09-12T13:12:59;5.88;;;1.77;;
50779;SDS011;36748;37.428;-121.972;2023-09-12T13:15:26;5.22;;;1.65;;
50779;SDS011;36748;37.428;-121.972;2023-09-12T13:17:52;5.57;;;1.42;;
50779;SDS011;36748;37.428;-121.972;2023-09-12T13:20:18;3.60;;;1.52;;
50779;SDS011;36748;37.428;-121.972;2023-09-12T13:22:44;4.15;;;1.95;;
50779;SDS011;36748;37.428;-121.972;2023-09-12T13:25:11;4.40;;;1.10;;
50779;SDS011;36748;37.428;-121.972;2023-09-12T13:27:37;5.15;;;1.20;;
50779;SDS011;36748;37.428;-121.972;2023-09-12T13:30:03;3.67;;;1.48;;
50779;SDS011;36748;37.428;-121.972;2023-09-12T13:32:30;5.32;;;2.00;;
50779;SDS011;36748;37.428;-121.972;2023-09-12T13:34:58;3.67;;;1.52;;
50779;SDS011;36748;37.428;-121.972;2023-09-12T13:37:24;3.05;;;1.17;;
50779;SDS011;36748;37.428;-121.972;2023-09-12T13:39:52;3.05;;;1.48;;
50779;SDS011;36748;37.428;-121.972;2023-09-12T13:42:19;5.95;;;1.55;;
50779;SDS011;36748;37.428;-121.972;2023-09-12T13:44:49;3.88;;;1.63;;
50779;SDS011;36748;37.428;-121.972;2023-09-12T13:47:16;6.45;;;1.27;;
50779;SDS011;36748;37.428;-121.972;2023-09-12T13:49:51;8.70;;;1.52;;
50779;SDS011;36748;37.428;-121.972;2023-09-12T13:52:21;2.33;;;1.25;;
50779;SDS011;36748;37.428;-121.972;2023-09-12T13:54:47;2.95;;;1.13;;
50779;SDS011;36748;37.428;-121.972;2023-09-12T13:57:15;7.93;;;1.45;;
50779;SDS011;36748;37.428;-121.972;2023-09-12T13:59:42;3.35;;;1.45;;
50779;SDS011;36748;37.428;-121.972;2023-09-12T14:02:08;2.28;;;1.38;;
50779;SDS011;36748;37.428;-121.972;2023-09-12T14:04:34;3.33;;;1.30;;
50779;SDS011;36748;37.428;-121.972;2023-09-12T14:07:00;2.33;;;1.40;;
50779;SDS011;36748;37.428;-121.972;2023-09-12T14:09:28;2.13;;;1.15;;
50779;SDS011;36748;37.428;-121.972;2023-09-12T14:11:54;2.45;;;1.50;;
50779;SDS011;36748;37.428;-121.972;2023-09-12T14:14:20;4.03;;;1.65;;
50779;SDS011;36748;37.428;-121.972;2023-09-12T14:16:46;4.85;;;1.23;;
50779;SDS011;36748;37.428;-121.972;2023-09-12T14:19:12;2.95;;;1.42;;
50779;SDS011;36748;37.428;-121.972;2023-09-12T14:21:39;3.58;;;1.25;;
50779;SDS011;36748;37.428;-121.972;2023-09-12T14:24:05;5.75;;;1.50;;
50779;SDS011;36748;37.428;-121.972;2023-09-12T14:26:31;2.80;;;1.45;;
50779;SDS011;36748;37.428;-121.972;2023-09-12T14:28:58;10.65;;;2.17;;
50779;SDS011;36748;37.428;-121.972;2023-09-12T14:31:24;6.70;;;1.73;;
50779;SDS011;36748;37.428;-121.972;2023-09-12T14:33:50;4.63;;;1.33;;
50779;SDS011;36748;37.428;-121.972;2023-09-12T14:36:17;4.88;;;1.52;;